Home   Weather   Monte Seco   Past weeks
Flag for Portugal

Past Weather in Monte Seco, Portugal — Yesterday and Last 2 Weeks

Currently: 59 °F. Clear. (Weather station: Faro / Aeroporto, Portugal). See more current weather

Past Weather in Monte Seco — Graph

°F

Monte Seco Temperature Yesterday

Maximum temperature yesterday: 72 °F (at 7:00 pm)
Minimum temperature yesterday: 55 °F (at 5:30 am)
Average temperature yesterday: 63 °F

High & Low Weather Summary for the Past Weeks

 TemperatureHumidityPressure
High79 °F (May 8, 11:30 am)100% (May 17, 1:30 am)30.09 "Hg (May 17, 1:30 am)
Low52 °F (May 15, 5:30 am)24% (May 9, 1:30 pm)29.86 "Hg (May 16, 5:00 pm)
Average67 °F61%29.96 "Hg
* Reported May 5 1:00 am — May 20 1:00 am, Monte Seco. Weather by CustomWeather, © 2024

Note: Actual official high and low records may vary slightly from our data, if they occured in-between our weather recording intervals... More about our weather records

Monte Seco Weather History for the Previous 24 Hours

Scroll right to see more
 ConditionsComfort  
Time TempWeatherWind HumidityBarometerVisibility
1:00 am
Mon, May 20
61 °FClear.13 mph72%29.98 "Hg10 mi
12:30 am61 °FClear.12 mph72%29.98 "Hg10 mi
12:00 am61 °FClear.13 mph72%29.98 "Hg10 mi
11:30 pm
Sun, May 19
61 °FClear.12 mph72%29.95 "Hg10 mi
11:00 pm61 °FClear.14 mph72%29.95 "Hg10 mi
10:30 pm63 °FClear.15 mph68%29.95 "Hg10 mi
10:00 pm63 °FClear.17 mph64%29.95 "Hg10 mi
9:30 pm64 °FClear.16 mph60%29.95 "Hg10 mi
9:00 pm64 °FClear.17 mph56%29.92 "Hg10 mi
8:30 pm66 °FSunny.18 mph56%29.92 "Hg10 mi
8:00 pm68 °FSunny.21 mph49%29.92 "Hg10 mi
7:30 pm70 °FPassing clouds.20 mph46%29.89 "HgN/A
7:00 pm72 °FPassing clouds.17 mph44%29.89 "HgN/A
6:00 pm70 °FPassing clouds.20 mph53%29.89 "HgN/A
5:30 pm68 °FPassing clouds.21 mph60%29.89 "HgN/A
5:00 pm70 °FPassing clouds.21 mph57%29.89 "HgN/A
4:30 pm68 °FPassing clouds.20 mph56%29.89 "HgN/A
4:00 pm68 °FPassing clouds.17 mph60%29.89 "HgN/A
3:30 pm68 °FPassing clouds.16 mph60%29.89 "HgN/A
3:00 pm68 °FPassing clouds.17 mph64%29.92 "HgN/A
2:00 pm66 °FPassing clouds.17 mph73%29.92 "HgN/A
1:30 pm64 °FScattered clouds.16 mph73%29.92 "HgN/A
1:00 pm64 °FScattered clouds.16 mph73%29.95 "HgN/A
12:30 pm64 °FScattered clouds.16 mph68%29.95 "HgN/A
12:00 pm64 °FScattered clouds.14 mph68%29.95 "HgN/A
11:30 am64 °FScattered clouds.12 mph73%29.95 "HgN/A
11:00 am64 °FPassing clouds.13 mph68%29.95 "HgN/A
10:30 am66 °FPassing clouds.13 mph52%29.95 "HgN/A
10:00 am64 °FPassing clouds.12 mph60%29.95 "HgN/A
9:30 am64 °FPassing clouds.10 mph64%29.95 "HgN/A
9:00 am63 °FPassing clouds.12 mph68%29.95 "HgN/A
8:30 am61 °FSunny.9 mph68%29.95 "Hg10 mi
8:00 am57 °FSunny.9 mph82%29.95 "Hg10 mi
7:30 am57 °FSunny.9 mph77%29.92 "Hg10 mi
7:00 am55 °FSunny.8 mph82%29.92 "Hg10 mi
6:30 am55 °FSunny.8 mph82%29.92 "Hg10 mi
6:00 am55 °FClear.8 mph82%29.89 "Hg10 mi
5:30 am55 °FClear.7 mph77%29.89 "Hg10 mi
5:00 am57 °FClear.8 mph72%29.89 "Hg10 mi
4:30 am57 °FClear.7 mph72%29.89 "Hg10 mi
4:00 am57 °FClear.7 mph72%29.89 "Hg10 mi
3:30 am59 °FClear.8 mph68%29.89 "Hg10 mi
3:00 am59 °FClear.8 mph68%29.92 "Hg10 mi
2:30 am59 °FClear.9 mph68%29.92 "Hg10 mi
2:00 am59 °FClear.9 mph68%29.92 "Hg10 mi
Weather by CustomWeather, © 2024

See weather overview